Waterloo Airport
CYKF : rendu visible

Aérodrome :











RETROUVEZ-NOUS SUR...

 
LOGIN :

S'inscrire | Disclaimer

   EN    FR    IT 

 









Légende :    VFR   VFR Marginal   IFR   IFR Intensif   IFR Très Intensif
Visi : 
Plafond : 
>= 8 km
>= 3000ft
5 à 8 km
1000 à 3000 ft
1500m à 5 km
500 à 1000 ft
800 à 1500m
200 à 500 ft
< 800m
< 200 ft
Symboles :   Orages  Brouillard  Fortes neiges  Fortes précipitations  Vent > 20 kt






- Altitude de l'aérodrome : 1054 ft
- Code IATA : YKF


CYKF - Waterloo

DERNIER METAR :
  • 211600Z AUTO 24014KT 9SM CLR M07/M12 A3041 RMK ICG SLP323

METARs EXPIRÉS :
  • 211500Z AUTO 23012G18KT 9SM CLR M08/M12 A3041 RMK ICG SLP324
  • 211400Z AUTO 24011KT 9SM CLR M10/M13 A3042 RMK ICG INTMT SLP327
  • 211300Z AUTO 24009KT 9SM CLR M11/M15 A3042 RMK ICG SLP327

TAF TAF CYKF
Valide du 21 à 14h jusqu'au 22 à 02h UTC


211338Z 2114/2202 24010KT P6SM SKC
BECMG 2116/2118 25010G20KT
FM212100 24015G25KT P6SM SKC RMK FCST BASED ON AUTO OBS. NXT FCST BY 212000Z



MET'MAP, la Météo Aéronautique d'un coup d'oeil ! - Copyright ORBIFLY Décembre 2007 - Disclaimer

ORBIFLY MET'MAP TEAM :

Programmation & Développement : Alexandra Zaïnal
Sur une idée originale de : Baudouin d'Aumeries
Assistance à la programmation : Marc-Olivier Méhu
Soutien technique & logistique : Manuel Goepfert

Contact : metmap@orbifly.com




SOURCES & CREDITS :

   NOAA       Earth
Advisory